SWA1873 KMCO-TNCM
Flight info
| Callsign | SWA1873 |
|---|---|
| Flight time | 2h 33m |
| Altitude | 39000 |
| Route | DDANY3 JIPOD DCT VENDS Y185 COUKY DCT FIPEK Y355 SLUGO |
| Aircraft | B737/M-SADE2E3GIJ4RWZ/LB1D1 |
Departure
| Time | 2026-04-23 21:03 |
|---|---|
| Airport | Orlando International Airport (KMCO) |
Arrival
| Time | 2026-04-23 23:36 |
|---|---|
| Airport | Princess Juliana International Airport (TNCM) |
| Time | Latitude | Longitude | Altitude | Speed | Heading |
|---|---|---|---|---|---|
| 2026-04-23 20:37 | 28.43377 | -81.30095 | 94 ft | 0 kts | 45° |
| 2026-04-23 20:53 | 28.43362 | -81.30112 | 94 ft | 4 kts | 45° |
| 2026-04-23 20:53 | 28.43348 | -81.30128 | 94 ft | 4 kts | 65° |
| 2026-04-23 20:54 | 28.43344 | -81.30153 | 94 ft | 3 kts | 90° |
| 2026-04-23 20:54 | 28.43344 | -81.30171 | 94 ft | 0 kts | 90° |
| 2026-04-23 20:58 | 28.43344 | -81.30170 | 94 ft | 0 kts | 90° |
| 2026-04-23 20:59 | 28.43339 | -81.30160 | 94 ft | 4 kts | 128° |
| 2026-04-23 20:59 | 28.43306 | -81.30132 | 94 ft | 7 kts | 137° |
| 2026-04-23 20:59 | 28.43283 | -81.30077 | 94 ft | 9 kts | 106° |
| 2026-04-23 20:59 | 28.43283 | -81.30009 | 94 ft | 9 kts | 76° |
| 2026-04-23 21:00 | 28.43306 | -81.29940 | 95 ft | 10 kts | 69° |
| 2026-04-23 21:00 | 28.43332 | -81.29862 | 94 ft | 10 kts | 69° |
| 2026-04-23 21:00 | 28.43339 | -81.29781 | 94 ft | 10 kts | 90° |
| 2026-04-23 21:00 | 28.43361 | -81.29714 | 95 ft | 10 kts | 19° |
| 2026-04-23 21:01 | 28.43437 | -81.29711 | 94 ft | 12 kts | 0° |
| 2026-04-23 21:01 | 28.43517 | -81.29711 | 96 ft | 9 kts | 1° |
| 2026-04-23 21:01 | 28.43550 | -81.29662 | 97 ft | 9 kts | 88° |
| 2026-04-23 21:01 | 28.43550 | -81.29603 | 97 ft | 4 kts | 89° |
| 2026-04-23 21:02 | 28.43538 | -81.29587 | 98 ft | 3 kts | 170° |
| 2026-04-23 21:02 | 28.43504 | -81.29587 | 97 ft | 18 kts | 179° |
| 2026-04-23 21:02 | 28.43117 | -81.29582 | 98 ft | 94 kts | 179° |
| 2026-04-23 21:02 | 28.42243 | -81.29562 | 112 ft | 153 kts | 180° |
| 2026-04-23 21:03 | 28.41122 | -81.29606 | 662 ft | 164 kts | 182° |
| 2026-04-23 21:03 | 28.40005 | -81.29661 | 1578 ft | 160 kts | 179° |
| 2026-04-23 21:03 | 28.38874 | -81.29586 | 2188 ft | 172 kts | 159° |
| 2026-04-23 21:03 | 28.37733 | -81.28903 | 2514 ft | 193 kts | 144° |
| 2026-04-23 21:04 | 28.36580 | -81.28065 | 3193 ft | 202 kts | 146° |
| 2026-04-23 21:04 | 28.35380 | -81.27199 | 3962 ft | 205 kts | 146° |
| 2026-04-23 21:04 | 28.34242 | -81.26233 | 4870 ft | 201 kts | 135° |
| 2026-04-23 21:04 | 28.33262 | -81.25100 | 5714 ft | 205 kts | 134° |
| 2026-04-23 21:05 | 28.32264 | -81.23920 | 6492 ft | 210 kts | 135° |
| 2026-04-23 21:05 | 28.31383 | -81.22570 | 6804 ft | 218 kts | 108° |
| 2026-04-23 21:05 | 28.31158 | -81.20801 | 7024 ft | 248 kts | 96° |
| 2026-04-23 21:05 | 28.31001 | -81.18710 | 7033 ft | 278 kts | 96° |
| 2026-04-23 21:06 | 28.30831 | -81.16508 | 7011 ft | 281 kts | 96° |
| 2026-04-23 21:06 | 28.30649 | -81.14296 | 7002 ft | 281 kts | 96° |
| 2026-04-23 21:06 | 28.30456 | -81.12094 | 6995 ft | 281 kts | 96° |
| 2026-04-23 21:06 | 28.30256 | -81.09889 | 6994 ft | 280 kts | 97° |
| 2026-04-23 21:07 | 28.30050 | -81.07691 | 7000 ft | 280 kts | 97° |
| 2026-04-23 21:07 | 28.29841 | -81.05495 | 7013 ft | 281 kts | 97° |
| 2026-04-23 21:07 | 28.29625 | -81.03261 | 7459 ft | 288 kts | 97° |
| 2026-04-23 21:07 | 28.29409 | -81.01028 | 8724 ft | 285 kts | 97° |
| 2026-04-23 21:08 | 28.29188 | -80.98756 | 9567 ft | 294 kts | 97° |
| 2026-04-23 21:08 | 28.28960 | -80.96431 | 10328 ft | 305 kts | 96° |
| 2026-04-23 21:08 | 28.28716 | -80.93940 | 10645 ft | 332 kts | 97° |
| 2026-04-23 21:08 | 28.28452 | -80.91252 | 11121 ft | 349 kts | 97° |
| 2026-04-23 21:09 | 28.28178 | -80.88471 | 11892 ft | 356 kts | 96° |
| 2026-04-23 21:09 | 28.27762 | -80.85690 | 12745 ft | 360 kts | 105° |
| 2026-04-23 21:09 | 28.26895 | -80.82999 | 13577 ft | 366 kts | 113° |
| 2026-04-23 21:09 | 28.25913 | -80.80347 | 14317 ft | 372 kts | 113° |
| 2026-04-23 21:10 | 28.24903 | -80.77626 | 15188 ft | 375 kts | 113° |
| 2026-04-23 21:10 | 28.23895 | -80.74878 | 16064 ft | 380 kts | 113° |
| 2026-04-23 21:10 | 28.22885 | -80.72087 | 16832 ft | 386 kts | 112° |
| 2026-04-23 21:10 | 28.21858 | -80.69238 | 17624 ft | 391 kts | 113° |
| 2026-04-23 21:11 | 28.20837 | -80.66382 | 18393 ft | 396 kts | 112° |
| 2026-04-23 21:11 | 28.19842 | -80.63442 | 19063 ft | 402 kts | 111° |
| 2026-04-23 21:11 | 28.18862 | -80.60453 | 19746 ft | 407 kts | 111° |
| 2026-04-23 21:11 | 28.17878 | -80.57430 | 20430 ft | 411 kts | 111° |
| 2026-04-23 21:12 | 28.16876 | -80.54365 | 21107 ft | 416 kts | 111° |
| 2026-04-23 21:12 | 28.15861 | -80.51275 | 21764 ft | 421 kts | 111° |
| 2026-04-23 21:12 | 28.14828 | -80.48147 | 22413 ft | 426 kts | 111° |
| 2026-04-23 21:12 | 28.13793 | -80.45025 | 23037 ft | 431 kts | 111° |
| 2026-04-23 21:13 | 28.12727 | -80.41813 | 23665 ft | 435 kts | 111° |
| 2026-04-23 21:13 | 28.11663 | -80.38609 | 24165 ft | 440 kts | 111° |
| 2026-04-23 21:13 | 28.10575 | -80.35335 | 24652 ft | 445 kts | 111° |
| 2026-04-23 21:13 | 28.09474 | -80.32028 | 25149 ft | 450 kts | 112° |
| 2026-04-23 21:14 | 28.08360 | -80.28691 | 25633 ft | 455 kts | 112° |
| 2026-04-23 21:14 | 28.07614 | -80.26464 | 25957 ft | 458 kts | 112° |
| 2026-04-23 21:14 | 28.06479 | -80.23079 | 26439 ft | 463 kts | 112° |
| 2026-04-23 21:14 | 28.05326 | -80.19645 | 26886 ft | 467 kts | 112° |
| 2026-04-23 21:15 | 28.03784 | -80.15056 | 27467 ft | 474 kts | 112° |
| 2026-04-23 21:15 | 28.02605 | -80.11549 | 27903 ft | 478 kts | 112° |
| 2026-04-23 21:15 | 28.01802 | -80.09160 | 28208 ft | 481 kts | 112° |
| 2026-04-23 21:15 | 28.00621 | -80.05650 | 28624 ft | 485 kts | 112° |
| 2026-04-23 21:16 | 27.99412 | -80.02062 | 29044 ft | 489 kts | 112° |
| 2026-04-23 21:16 | 27.98192 | -79.98443 | 29450 ft | 494 kts | 112° |
| 2026-04-23 21:16 | 27.96964 | -79.94805 | 29856 ft | 498 kts | 112° |
| 2026-04-23 21:16 | 27.95724 | -79.91133 | 30231 ft | 502 kts | 112° |
| 2026-04-23 21:17 | 27.94473 | -79.87435 | 30577 ft | 505 kts | 112° |
| 2026-04-23 21:17 | 27.93216 | -79.83720 | 30951 ft | 507 kts | 113° |
| 2026-04-23 21:17 | 27.91953 | -79.79993 | 31325 ft | 508 kts | 113° |
| 2026-04-23 21:17 | 27.90684 | -79.76251 | 31658 ft | 511 kts | 113° |
| 2026-04-23 21:18 | 27.89407 | -79.72489 | 31970 ft | 513 kts | 113° |
| 2026-04-23 21:18 | 27.88122 | -79.68710 | 32304 ft | 515 kts | 113° |
| 2026-04-23 21:18 | 27.86849 | -79.64969 | 32734 ft | 514 kts | 113° |
| 2026-04-23 21:18 | 27.85565 | -79.61196 | 33219 ft | 511 kts | 113° |
| 2026-04-23 21:19 | 27.84286 | -79.57442 | 33664 ft | 510 kts | 114° |
| 2026-04-23 21:19 | 27.83010 | -79.53704 | 34051 ft | 510 kts | 114° |
| 2026-04-23 21:19 | 27.81749 | -79.50014 | 34378 ft | 509 kts | 114° |
| 2026-04-23 21:19 | 27.80474 | -79.46284 | 34760 ft | 507 kts | 114° |
| 2026-04-23 21:20 | 27.79206 | -79.42580 | 35170 ft | 504 kts | 114° |
| 2026-04-23 21:20 | 27.77940 | -79.38884 | 35559 ft | 502 kts | 114° |
| 2026-04-23 21:20 | 27.76681 | -79.35214 | 35905 ft | 501 kts | 114° |
| 2026-04-23 21:20 | 27.75421 | -79.31548 | 36231 ft | 500 kts | 114° |
| 2026-04-23 21:21 | 27.74163 | -79.27887 | 36561 ft | 499 kts | 113° |
| 2026-04-23 21:21 | 27.72904 | -79.24230 | 36906 ft | 497 kts | 113° |
| 2026-04-23 21:21 | 27.71672 | -79.20651 | 37241 ft | 495 kts | 113° |
| 2026-04-23 21:21 | 27.70426 | -79.17037 | 37567 ft | 494 kts | 113° |
| 2026-04-23 21:22 | 27.69177 | -79.13419 | 37868 ft | 493 kts | 113° |
| 2026-04-23 21:22 | 27.67932 | -79.09814 | 38185 ft | 491 kts | 113° |
| 2026-04-23 21:22 | 27.66691 | -79.06227 | 38490 ft | 490 kts | 113° |
| 2026-04-23 21:22 | 27.65453 | -79.02649 | 38758 ft | 490 kts | 113° |
| 2026-04-23 21:23 | 27.64212 | -78.99067 | 38977 ft | 489 kts | 113° |
| 2026-04-23 21:23 | 27.62972 | -78.95494 | 39099 ft | 491 kts | 114° |
| 2026-04-23 21:23 | 27.60463 | -78.88271 | 39094 ft | 493 kts | 114° |
| 2026-04-23 21:24 | 27.57985 | -78.81148 | 39091 ft | 489 kts | 114° |
| 2026-04-23 21:24 | 27.55502 | -78.74024 | 39093 ft | 487 kts | 114° |
| 2026-04-23 21:25 | 27.53023 | -78.66928 | 39096 ft | 485 kts | 114° |
| 2026-04-23 21:25 | 27.50559 | -78.59887 | 39097 ft | 485 kts | 114° |
| 2026-04-23 21:26 | 27.48078 | -78.52812 | 39096 ft | 486 kts | 114° |
| 2026-04-23 21:26 | 27.45582 | -78.45708 | 39092 ft | 488 kts | 114° |
| 2026-04-23 21:27 | 27.43089 | -78.38622 | 39098 ft | 490 kts | 114° |
| 2026-04-23 21:27 | 27.40571 | -78.31480 | 39098 ft | 492 kts | 114° |
| 2026-04-23 21:28 | 27.38037 | -78.24307 | 39098 ft | 494 kts | 114° |
| 2026-04-23 21:28 | 27.35504 | -78.17145 | 39093 ft | 495 kts | 114° |
| 2026-04-23 21:29 | 27.32559 | -78.10178 | 39087 ft | 491 kts | 127° |
| 2026-04-23 21:29 | 27.28768 | -78.03808 | 39093 ft | 490 kts | 128° |
| 2026-04-23 21:30 | 27.24918 | -77.97460 | 39090 ft | 491 kts | 128° |
| 2026-04-23 21:30 | 27.21119 | -77.91087 | 39090 ft | 491 kts | 128° |
| 2026-04-23 21:31 | 27.17364 | -77.84738 | 39090 ft | 490 kts | 128° |
| 2026-04-23 21:31 | 27.13589 | -77.78357 | 39092 ft | 490 kts | 128° |
| 2026-04-23 21:32 | 27.09815 | -77.71994 | 39090 ft | 490 kts | 128° |
| 2026-04-23 21:32 | 27.06034 | -77.65631 | 39090 ft | 489 kts | 128° |
| 2026-04-23 21:33 | 27.02258 | -77.59283 | 39090 ft | 490 kts | 128° |
| 2026-04-23 21:33 | 26.98488 | -77.52911 | 39088 ft | 490 kts | 127° |
| 2026-04-23 21:34 | 26.94783 | -77.46542 | 39093 ft | 491 kts | 127° |
| 2026-04-23 21:34 | 26.91055 | -77.40127 | 39092 ft | 491 kts | 127° |
| 2026-04-23 21:35 | 26.87313 | -77.33708 | 39091 ft | 492 kts | 128° |
| 2026-04-23 21:35 | 26.83558 | -77.27288 | 39090 ft | 493 kts | 128° |
| 2026-04-23 21:36 | 26.77907 | -77.17646 | 39089 ft | 494 kts | 128° |
| 2026-04-23 21:37 | 26.74147 | -77.11242 | 39089 ft | 495 kts | 128° |
| 2026-04-23 21:37 | 26.70358 | -77.04798 | 39090 ft | 496 kts | 128° |
| 2026-04-23 21:38 | 26.66559 | -76.98345 | 39091 ft | 497 kts | 128° |
| 2026-04-23 21:38 | 26.62753 | -76.91889 | 39089 ft | 498 kts | 128° |
| 2026-04-23 21:39 | 26.58955 | -76.85457 | 39090 ft | 499 kts | 128° |
| 2026-04-23 21:39 | 26.55125 | -76.78978 | 39090 ft | 499 kts | 128° |
| 2026-04-23 21:40 | 26.51291 | -76.72503 | 39090 ft | 500 kts | 128° |
| 2026-04-23 21:40 | 26.47464 | -76.66049 | 39089 ft | 501 kts | 129° |
| 2026-04-23 21:41 | 26.43613 | -76.59565 | 39085 ft | 501 kts | 129° |
| 2026-04-23 21:41 | 26.39761 | -76.53086 | 39085 ft | 501 kts | 129° |
| 2026-04-23 21:42 | 26.35895 | -76.46594 | 39086 ft | 502 kts | 129° |
| 2026-04-23 21:42 | 26.32026 | -76.40106 | 39088 ft | 502 kts | 129° |
| 2026-04-23 21:43 | 26.28148 | -76.33613 | 39083 ft | 502 kts | 129° |
| 2026-04-23 21:43 | 26.24299 | -76.27176 | 39083 ft | 502 kts | 129° |
| 2026-04-23 21:44 | 26.20412 | -76.20687 | 39084 ft | 503 kts | 129° |
| 2026-04-23 21:44 | 26.16523 | -76.14202 | 39087 ft | 503 kts | 129° |
| 2026-04-23 21:45 | 26.12636 | -76.07730 | 39080 ft | 503 kts | 129° |
| 2026-04-23 21:45 | 26.08741 | -76.01255 | 39076 ft | 503 kts | 129° |
| 2026-04-23 21:46 | 26.04869 | -75.94825 | 39086 ft | 503 kts | 130° |
| 2026-04-23 21:46 | 26.00969 | -75.88360 | 39088 ft | 504 kts | 130° |
| 2026-04-23 21:47 | 25.97058 | -75.81884 | 39076 ft | 504 kts | 130° |
| 2026-04-23 21:47 | 25.93148 | -75.75419 | 39083 ft | 504 kts | 130° |
| 2026-04-23 21:48 | 25.89227 | -75.68945 | 39079 ft | 504 kts | 130° |
| 2026-04-23 21:48 | 25.85324 | -75.62511 | 39079 ft | 505 kts | 130° |
| 2026-04-23 21:49 | 25.81398 | -75.56047 | 39078 ft | 505 kts | 130° |
| 2026-04-23 21:49 | 25.77461 | -75.49574 | 39081 ft | 506 kts | 131° |
| 2026-04-23 21:50 | 25.73524 | -75.43109 | 39080 ft | 506 kts | 131° |
| 2026-04-23 21:50 | 25.69576 | -75.36636 | 39079 ft | 507 kts | 131° |
| 2026-04-23 21:51 | 25.65610 | -75.30144 | 39080 ft | 507 kts | 131° |
| 2026-04-23 21:51 | 25.61672 | -75.23704 | 39082 ft | 508 kts | 131° |
| 2026-04-23 21:52 | 25.57704 | -75.17225 | 39078 ft | 508 kts | 131° |
| 2026-04-23 21:52 | 25.53728 | -75.10742 | 39080 ft | 509 kts | 131° |
| 2026-04-23 21:53 | 25.49741 | -75.04250 | 39078 ft | 509 kts | 131° |
| 2026-04-23 21:53 | 25.45751 | -74.97761 | 39078 ft | 510 kts | 132° |
| 2026-04-23 21:54 | 25.41772 | -74.91300 | 39081 ft | 511 kts | 132° |
| 2026-04-23 21:54 | 25.37761 | -74.84796 | 39080 ft | 511 kts | 132° |
| 2026-04-23 21:55 | 25.33747 | -74.78296 | 39080 ft | 512 kts | 132° |
| 2026-04-23 21:55 | 25.29722 | -74.71786 | 39079 ft | 512 kts | 132° |
| 2026-04-23 21:56 | 25.25721 | -74.65325 | 39077 ft | 512 kts | 133° |
| 2026-04-23 21:56 | 25.21690 | -74.58824 | 39077 ft | 513 kts | 133° |
| 2026-04-23 21:57 | 25.17654 | -74.52322 | 39077 ft | 512 kts | 133° |
| 2026-04-23 21:57 | 25.13615 | -74.45826 | 39077 ft | 512 kts | 133° |
| 2026-04-23 21:58 | 25.09605 | -74.39385 | 39071 ft | 512 kts | 133° |
| 2026-04-23 21:58 | 25.05571 | -74.32914 | 39069 ft | 511 kts | 133° |
| 2026-04-23 21:59 | 25.01537 | -74.26452 | 39073 ft | 511 kts | 133° |
| 2026-04-23 21:59 | 24.97509 | -74.20008 | 39074 ft | 510 kts | 133° |
| 2026-04-23 22:00 | 24.91462 | -74.10352 | 39072 ft | 509 kts | 134° |
| 2026-04-23 22:00 | 24.87457 | -74.03966 | 39074 ft | 509 kts | 134° |
| 2026-04-23 22:01 | 24.83405 | -73.97513 | 39071 ft | 509 kts | 134° |
| 2026-04-23 22:01 | 24.79400 | -73.91145 | 39070 ft | 508 kts | 134° |
| 2026-04-23 22:02 | 24.75372 | -73.84749 | 39074 ft | 508 kts | 134° |
| 2026-04-23 22:02 | 24.71347 | -73.78365 | 39071 ft | 508 kts | 134° |
| 2026-04-23 22:03 | 24.67996 | -73.73056 | 39073 ft | 508 kts | 134° |
| 2026-04-23 22:03 | 24.63965 | -73.66679 | 39073 ft | 508 kts | 134° |
| 2026-04-23 22:04 | 24.59921 | -73.60287 | 39065 ft | 508 kts | 134° |
| 2026-04-23 22:04 | 24.55881 | -73.53923 | 39070 ft | 508 kts | 135° |
| 2026-04-23 22:05 | 24.51735 | -73.47660 | 39072 ft | 507 kts | 136° |
| 2026-04-23 22:05 | 24.47539 | -73.41441 | 39062 ft | 507 kts | 136° |
| 2026-04-23 22:06 | 24.43370 | -73.35248 | 39065 ft | 508 kts | 136° |
| 2026-04-23 22:06 | 24.39182 | -73.29000 | 39062 ft | 508 kts | 136° |
| 2026-04-23 22:07 | 24.34993 | -73.22747 | 39063 ft | 508 kts | 136° |
| 2026-04-23 22:07 | 24.30813 | -73.16517 | 39065 ft | 507 kts | 136° |
| 2026-04-23 22:08 | 24.26654 | -73.10327 | 39060 ft | 507 kts | 136° |
| 2026-04-23 22:08 | 24.22470 | -73.04109 | 39062 ft | 506 kts | 136° |
| 2026-04-23 22:09 | 24.18292 | -72.97908 | 39054 ft | 506 kts | 136° |
| 2026-04-23 22:09 | 24.14113 | -72.91714 | 39059 ft | 505 kts | 136° |
| 2026-04-23 22:10 | 24.09929 | -72.85520 | 39051 ft | 505 kts | 136° |
| 2026-04-23 22:10 | 24.05751 | -72.79342 | 39056 ft | 505 kts | 136° |
| 2026-04-23 22:11 | 24.01571 | -72.73170 | 39065 ft | 505 kts | 136° |
| 2026-04-23 22:11 | 23.97382 | -72.66993 | 39059 ft | 505 kts | 136° |
| 2026-04-23 22:12 | 23.93198 | -72.60829 | 39054 ft | 505 kts | 136° |
| 2026-04-23 22:12 | 23.89037 | -72.54707 | 39058 ft | 505 kts | 136° |
| 2026-04-23 22:13 | 23.84845 | -72.48546 | 39055 ft | 505 kts | 136° |
| 2026-04-23 22:13 | 23.80650 | -72.42389 | 39057 ft | 505 kts | 136° |
| 2026-04-23 22:14 | 23.76450 | -72.36233 | 39055 ft | 505 kts | 136° |
| 2026-04-23 22:14 | 23.72251 | -72.30085 | 39055 ft | 505 kts | 136° |
| 2026-04-23 22:15 | 23.68049 | -72.23941 | 39053 ft | 505 kts | 136° |
| 2026-04-23 22:15 | 23.63848 | -72.17804 | 39052 ft | 505 kts | 136° |
| 2026-04-23 22:16 | 23.59668 | -72.11707 | 39054 ft | 505 kts | 136° |
| 2026-04-23 22:16 | 23.55457 | -72.05571 | 39055 ft | 505 kts | 136° |
| 2026-04-23 22:17 | 23.51245 | -71.99442 | 39048 ft | 505 kts | 136° |
| 2026-04-23 22:17 | 23.47034 | -71.93320 | 39050 ft | 505 kts | 136° |
| 2026-04-23 22:18 | 23.42808 | -71.87183 | 39049 ft | 505 kts | 136° |
| 2026-04-23 22:18 | 23.38587 | -71.81061 | 39049 ft | 505 kts | 136° |
| 2026-04-23 22:19 | 23.34396 | -71.74922 | 39048 ft | 506 kts | 134° |
| 2026-04-23 22:19 | 23.30373 | -71.68614 | 39047 ft | 508 kts | 133° |
| 2026-04-23 22:20 | 23.26423 | -71.62310 | 39046 ft | 507 kts | 133° |
| 2026-04-23 22:20 | 23.22430 | -71.55993 | 39049 ft | 506 kts | 133° |
| 2026-04-23 22:21 | 23.18419 | -71.49703 | 39044 ft | 506 kts | 133° |
| 2026-04-23 22:21 | 23.14399 | -71.43423 | 39044 ft | 505 kts | 133° |
| 2026-04-23 22:22 | 23.10383 | -71.37155 | 39046 ft | 505 kts | 133° |
| 2026-04-23 22:22 | 23.06366 | -71.30891 | 39053 ft | 505 kts | 133° |
| 2026-04-23 22:23 | 23.02350 | -71.24634 | 39042 ft | 505 kts | 133° |
| 2026-04-23 22:23 | 22.98353 | -71.18415 | 39040 ft | 505 kts | 133° |
| 2026-04-23 22:24 | 22.94327 | -71.12157 | 39038 ft | 506 kts | 133° |
| 2026-04-23 22:24 | 22.90301 | -71.05907 | 39044 ft | 506 kts | 133° |
| 2026-04-23 22:25 | 22.86262 | -70.99645 | 39039 ft | 506 kts | 133° |
| 2026-04-23 22:25 | 22.82221 | -70.93386 | 39040 ft | 506 kts | 133° |
| 2026-04-23 22:26 | 22.78177 | -70.87131 | 39033 ft | 507 kts | 133° |
| 2026-04-23 22:26 | 22.74125 | -70.80872 | 39038 ft | 507 kts | 133° |
| 2026-04-23 22:27 | 22.70072 | -70.74618 | 39040 ft | 507 kts | 133° |
| 2026-04-23 22:27 | 22.66044 | -70.68409 | 39039 ft | 507 kts | 133° |
| 2026-04-23 22:28 | 22.61990 | -70.62158 | 39035 ft | 507 kts | 133° |
| 2026-04-23 22:28 | 22.57908 | -70.55867 | 39032 ft | 507 kts | 133° |
| 2026-04-23 22:29 | 22.53869 | -70.49677 | 39033 ft | 507 kts | 133° |
| 2026-04-23 22:29 | 22.49803 | -70.43449 | 39034 ft | 507 kts | 133° |
| 2026-04-23 22:30 | 22.45737 | -70.37222 | 39033 ft | 507 kts | 133° |
| 2026-04-23 22:30 | 22.41664 | -70.30987 | 39035 ft | 507 kts | 133° |
| 2026-04-23 22:31 | 22.37617 | -70.24800 | 39034 ft | 506 kts | 133° |
| 2026-04-23 22:31 | 22.33549 | -70.18590 | 39033 ft | 506 kts | 133° |
| 2026-04-23 22:32 | 22.29479 | -70.12382 | 39034 ft | 506 kts | 133° |
| 2026-04-23 22:32 | 22.25405 | -70.06177 | 39032 ft | 506 kts | 133° |
| 2026-04-23 22:33 | 22.21334 | -69.99983 | 39032 ft | 506 kts | 133° |
| 2026-04-23 22:33 | 22.17267 | -69.93801 | 39031 ft | 505 kts | 133° |
| 2026-04-23 22:34 | 22.13189 | -69.87612 | 39027 ft | 505 kts | 133° |
| 2026-04-23 22:34 | 22.09107 | -69.81422 | 39030 ft | 505 kts | 133° |
| 2026-04-23 22:35 | 22.05057 | -69.75288 | 39025 ft | 505 kts | 133° |
| 2026-04-23 22:35 | 22.00975 | -69.69114 | 39027 ft | 505 kts | 133° |
| 2026-04-23 22:36 | 21.96897 | -69.62951 | 39022 ft | 505 kts | 133° |
| 2026-04-23 22:36 | 21.92810 | -69.56782 | 39026 ft | 505 kts | 133° |
| 2026-04-23 22:37 | 21.88723 | -69.50620 | 39027 ft | 505 kts | 133° |
| 2026-04-23 22:37 | 21.84637 | -69.44467 | 39025 ft | 505 kts | 133° |
| 2026-04-23 22:38 | 21.80540 | -69.38305 | 39022 ft | 506 kts | 133° |
| 2026-04-23 22:38 | 21.76445 | -69.32152 | 39020 ft | 506 kts | 133° |
| 2026-04-23 22:39 | 21.72370 | -69.26035 | 39019 ft | 506 kts | 133° |
| 2026-04-23 22:39 | 21.68266 | -69.19882 | 39018 ft | 506 kts | 133° |
| 2026-04-23 22:40 | 21.64159 | -69.13732 | 39020 ft | 506 kts | 133° |
| 2026-04-23 22:41 | 21.57995 | -69.04514 | 39019 ft | 506 kts | 133° |
| 2026-04-23 22:41 | 21.53907 | -68.98410 | 39017 ft | 506 kts | 133° |
| 2026-04-23 22:42 | 21.49769 | -68.92238 | 39015 ft | 506 kts | 133° |
| 2026-04-23 22:42 | 21.45681 | -68.86145 | 39019 ft | 506 kts | 133° |
| 2026-04-23 22:43 | 21.41561 | -68.80013 | 39021 ft | 506 kts | 133° |
| 2026-04-23 22:43 | 21.37432 | -68.73875 | 39016 ft | 506 kts | 133° |
| 2026-04-23 22:44 | 21.33312 | -68.67756 | 39009 ft | 506 kts | 133° |
| 2026-04-23 22:44 | 21.29219 | -68.61685 | 39013 ft | 505 kts | 133° |
| 2026-04-23 22:45 | 21.25096 | -68.55575 | 39011 ft | 505 kts | 133° |
| 2026-04-23 22:45 | 21.20971 | -68.49468 | 39012 ft | 505 kts | 133° |
| 2026-04-23 22:46 | 21.16850 | -68.43375 | 39015 ft | 505 kts | 133° |
| 2026-04-23 22:46 | 21.12723 | -68.37280 | 39014 ft | 505 kts | 133° |
| 2026-04-23 22:47 | 21.08596 | -68.31191 | 39012 ft | 505 kts | 133° |
| 2026-04-23 22:47 | 21.04495 | -68.25146 | 39013 ft | 505 kts | 133° |
| 2026-04-23 22:48 | 21.00371 | -68.19074 | 39010 ft | 504 kts | 134° |
| 2026-04-23 22:48 | 20.96304 | -68.13081 | 39002 ft | 491 kts | 134° |
| 2026-04-23 22:49 | 20.92283 | -68.07179 | 39013 ft | 490 kts | 134° |
| 2026-04-23 22:49 | 20.88265 | -68.01286 | 39012 ft | 491 kts | 134° |
| 2026-04-23 22:50 | 20.84905 | -67.96392 | 39010 ft | 490 kts | 135° |
| 2026-04-23 22:50 | 20.80019 | -67.89682 | 39012 ft | 489 kts | 137° |
| 2026-04-23 22:51 | 20.75798 | -67.83962 | 39012 ft | 490 kts | 136° |
| 2026-04-23 22:51 | 20.71621 | -67.78261 | 39008 ft | 491 kts | 136° |
| 2026-04-23 22:52 | 20.67417 | -67.72502 | 39012 ft | 492 kts | 136° |
| 2026-04-23 22:52 | 20.63895 | -67.67678 | 39013 ft | 492 kts | 136° |
| 2026-04-23 22:53 | 20.59707 | -67.61950 | 39010 ft | 492 kts | 136° |
| 2026-04-23 22:53 | 20.55489 | -67.56187 | 38996 ft | 493 kts | 136° |
| 2026-04-23 22:54 | 20.51267 | -67.50425 | 39008 ft | 493 kts | 136° |
| 2026-04-23 22:54 | 20.47034 | -67.44655 | 39007 ft | 493 kts | 136° |
| 2026-04-23 22:55 | 20.42804 | -67.38891 | 39007 ft | 493 kts | 136° |
| 2026-04-23 22:55 | 20.38591 | -67.33159 | 39008 ft | 494 kts | 136° |
| 2026-04-23 22:56 | 20.34354 | -67.27400 | 39009 ft | 494 kts | 136° |
| 2026-04-23 22:56 | 20.30108 | -67.21632 | 38992 ft | 494 kts | 136° |
| 2026-04-23 22:57 | 20.25861 | -67.15868 | 39009 ft | 494 kts | 136° |
| 2026-04-23 22:57 | 20.21618 | -67.10113 | 39002 ft | 495 kts | 135° |
| 2026-04-23 22:58 | 20.17359 | -67.04343 | 39015 ft | 495 kts | 135° |
| 2026-04-23 22:58 | 20.13091 | -66.98567 | 39007 ft | 496 kts | 135° |
| 2026-04-23 22:59 | 20.08848 | -66.92830 | 39005 ft | 496 kts | 135° |
| 2026-04-23 22:59 | 20.04572 | -66.87052 | 39005 ft | 496 kts | 135° |
| 2026-04-23 23:00 | 20.00294 | -66.81275 | 39006 ft | 497 kts | 134° |
| 2026-04-23 23:00 | 19.96610 | -66.74972 | 39010 ft | 505 kts | 123° |
| 2026-04-23 23:01 | 19.93372 | -66.68337 | 39002 ft | 506 kts | 123° |
| 2026-04-23 23:01 | 19.90161 | -66.61744 | 39000 ft | 504 kts | 123° |
| 2026-04-23 23:02 | 19.86893 | -66.55157 | 39002 ft | 503 kts | 123° |
| 2026-04-23 23:02 | 19.83607 | -66.48600 | 38999 ft | 503 kts | 124° |
| 2026-04-23 23:03 | 19.80315 | -66.42045 | 39001 ft | 502 kts | 124° |
| 2026-04-23 23:03 | 19.77030 | -66.35507 | 38996 ft | 501 kts | 124° |
| 2026-04-23 23:04 | 19.73770 | -66.29021 | 38993 ft | 501 kts | 124° |
| 2026-04-23 23:04 | 19.70483 | -66.22489 | 38997 ft | 501 kts | 124° |
| 2026-04-23 23:05 | 19.67199 | -66.15970 | 38996 ft | 501 kts | 124° |
| 2026-04-23 23:05 | 19.63911 | -66.09451 | 38997 ft | 501 kts | 124° |
| 2026-04-23 23:06 | 19.60622 | -66.02936 | 38992 ft | 501 kts | 124° |
| 2026-04-23 23:06 | 19.57330 | -65.96422 | 38996 ft | 501 kts | 124° |
| 2026-04-23 23:07 | 19.54059 | -65.89958 | 38993 ft | 501 kts | 124° |
| 2026-04-23 23:07 | 19.50763 | -65.83451 | 38993 ft | 501 kts | 124° |
| 2026-04-23 23:08 | 19.47467 | -65.76951 | 38995 ft | 501 kts | 124° |
| 2026-04-23 23:08 | 19.44163 | -65.70443 | 38993 ft | 501 kts | 124° |
| 2026-04-23 23:09 | 19.40861 | -65.63946 | 38994 ft | 501 kts | 124° |
| 2026-04-23 23:09 | 19.37551 | -65.57440 | 38995 ft | 501 kts | 124° |
| 2026-04-23 23:10 | 19.34258 | -65.50973 | 38991 ft | 501 kts | 124° |
| 2026-04-23 23:10 | 19.30948 | -65.44480 | 38994 ft | 501 kts | 124° |
| 2026-04-23 23:11 | 19.27634 | -65.37991 | 38995 ft | 501 kts | 124° |
| 2026-04-23 23:11 | 19.24316 | -65.31502 | 38994 ft | 501 kts | 124° |
| 2026-04-23 23:12 | 19.20990 | -65.25003 | 38996 ft | 501 kts | 124° |
| 2026-04-23 23:12 | 19.17672 | -65.18523 | 38996 ft | 501 kts | 124° |
| 2026-04-23 23:13 | 19.14369 | -65.12079 | 38994 ft | 501 kts | 124° |
| 2026-04-23 23:13 | 19.11045 | -65.05602 | 38998 ft | 500 kts | 124° |
| 2026-04-23 23:14 | 19.07722 | -64.99136 | 38998 ft | 500 kts | 124° |
| 2026-04-23 23:14 | 19.04391 | -64.92658 | 38996 ft | 500 kts | 124° |
| 2026-04-23 23:15 | 19.01087 | -64.86243 | 38996 ft | 500 kts | 125° |
| 2026-04-23 23:15 | 18.97741 | -64.79756 | 38459 ft | 507 kts | 124° |
| 2026-04-23 23:15 | 18.96047 | -64.76476 | 37763 ft | 507 kts | 124° |
| 2026-04-23 23:16 | 18.94363 | -64.73211 | 37075 ft | 505 kts | 124° |
| 2026-04-23 23:16 | 18.92678 | -64.69946 | 36367 ft | 505 kts | 124° |
| 2026-04-23 23:16 | 18.90997 | -64.66690 | 35644 ft | 505 kts | 124° |
| 2026-04-23 23:16 | 18.89306 | -64.63421 | 34767 ft | 509 kts | 124° |
| 2026-04-23 23:17 | 18.87596 | -64.60118 | 33873 ft | 514 kts | 123° |
| 2026-04-23 23:17 | 18.85895 | -64.56835 | 32868 ft | 518 kts | 123° |
| 2026-04-23 23:17 | 18.84163 | -64.53491 | 31938 ft | 520 kts | 122° |
| 2026-04-23 23:17 | 18.82433 | -64.50149 | 31278 ft | 515 kts | 122° |
| 2026-04-23 23:18 | 18.80723 | -64.46844 | 30578 ft | 511 kts | 122° |
| 2026-04-23 23:18 | 18.79022 | -64.43560 | 29863 ft | 508 kts | 122° |
| 2026-04-23 23:18 | 18.77333 | -64.40303 | 29095 ft | 503 kts | 122° |
| 2026-04-23 23:18 | 18.75681 | -64.37119 | 28380 ft | 497 kts | 122° |
| 2026-04-23 23:19 | 18.74023 | -64.33926 | 27680 ft | 491 kts | 122° |
| 2026-04-23 23:19 | 18.72393 | -64.30788 | 27001 ft | 486 kts | 122° |
| 2026-04-23 23:19 | 18.70775 | -64.27678 | 26322 ft | 480 kts | 121° |
| 2026-04-23 23:19 | 18.69168 | -64.24590 | 25627 ft | 476 kts | 121° |
| 2026-04-23 23:20 | 18.67584 | -64.21547 | 24945 ft | 472 kts | 121° |
| 2026-04-23 23:20 | 18.66011 | -64.18529 | 24254 ft | 468 kts | 121° |
| 2026-04-23 23:20 | 18.64450 | -64.15533 | 23566 ft | 464 kts | 121° |
| 2026-04-23 23:20 | 18.62900 | -64.12560 | 22768 ft | 460 kts | 121° |
| 2026-04-23 23:21 | 18.61367 | -64.09621 | 22069 ft | 454 kts | 121° |
| 2026-04-23 23:21 | 18.59857 | -64.06728 | 21389 ft | 447 kts | 121° |
| 2026-04-23 23:21 | 18.58370 | -64.03880 | 20718 ft | 441 kts | 120° |
| 2026-04-23 23:21 | 18.56900 | -64.01064 | 20062 ft | 435 kts | 120° |
| 2026-04-23 23:22 | 18.55469 | -63.98326 | 19394 ft | 430 kts | 120° |
| 2026-04-23 23:22 | 18.54036 | -63.95585 | 18729 ft | 424 kts | 120° |
| 2026-04-23 23:22 | 18.52620 | -63.92879 | 18039 ft | 419 kts | 120° |
| 2026-04-23 23:22 | 18.51224 | -63.90211 | 17427 ft | 411 kts | 120° |
| 2026-04-23 23:23 | 18.49872 | -63.87627 | 17222 ft | 393 kts | 120° |
| 2026-04-23 23:23 | 18.48581 | -63.85159 | 17039 ft | 377 kts | 120° |
| 2026-04-23 23:23 | 18.47324 | -63.82760 | 16484 ft | 373 kts | 120° |
| 2026-04-23 23:23 | 18.46059 | -63.80348 | 15703 ft | 377 kts | 120° |
| 2026-04-23 23:24 | 18.44793 | -63.77934 | 15082 ft | 375 kts | 119° |
| 2026-04-23 23:24 | 18.43542 | -63.75547 | 14571 ft | 370 kts | 119° |
| 2026-04-23 23:24 | 18.42304 | -63.73186 | 14047 ft | 366 kts | 119° |
| 2026-04-23 23:24 | 18.41081 | -63.70856 | 13486 ft | 362 kts | 119° |
| 2026-04-23 23:25 | 18.39869 | -63.68548 | 12890 ft | 358 kts | 119° |
| 2026-04-23 23:25 | 18.38572 | -63.66324 | 12291 ft | 355 kts | 129° |
| 2026-04-23 23:25 | 18.36866 | -63.64485 | 11686 ft | 345 kts | 136° |
| 2026-04-23 23:25 | 18.35125 | -63.62779 | 10880 ft | 340 kts | 137° |
| 2026-04-23 23:26 | 18.33419 | -63.61133 | 10520 ft | 322 kts | 137° |
| 2026-04-23 23:26 | 18.31826 | -63.59592 | 10349 ft | 300 kts | 136° |
| 2026-04-23 23:26 | 18.30349 | -63.58152 | 9993 ft | 289 kts | 136° |
| 2026-04-23 23:26 | 18.28896 | -63.56724 | 9496 ft | 283 kts | 136° |
| 2026-04-23 23:27 | 18.27476 | -63.55324 | 9056 ft | 276 kts | 135° |
| 2026-04-23 23:27 | 18.26096 | -63.53958 | 8674 ft | 270 kts | 135° |
| 2026-04-23 23:27 | 18.24727 | -63.52601 | 8305 ft | 270 kts | 135° |
| 2026-04-23 23:27 | 18.23363 | -63.51248 | 7945 ft | 269 kts | 135° |
| 2026-04-23 23:28 | 18.22005 | -63.49900 | 7583 ft | 269 kts | 135° |
| 2026-04-23 23:28 | 18.20646 | -63.48552 | 7213 ft | 268 kts | 135° |
| 2026-04-23 23:28 | 18.19287 | -63.47202 | 6865 ft | 267 kts | 135° |
| 2026-04-23 23:28 | 18.17933 | -63.45858 | 6510 ft | 267 kts | 135° |
| 2026-04-23 23:29 | 18.16583 | -63.44519 | 6121 ft | 267 kts | 135° |
| 2026-04-23 23:29 | 18.15233 | -63.43179 | 5745 ft | 267 kts | 135° |
| 2026-04-23 23:29 | 18.13882 | -63.41839 | 5361 ft | 266 kts | 135° |
| 2026-04-23 23:29 | 18.12537 | -63.40504 | 4998 ft | 265 kts | 135° |
| 2026-04-23 23:30 | 18.11213 | -63.39190 | 4629 ft | 265 kts | 135° |
| 2026-04-23 23:30 | 18.09859 | -63.37847 | 4240 ft | 264 kts | 136° |
| 2026-04-23 23:30 | 18.08548 | -63.36548 | 3978 ft | 258 kts | 135° |
| 2026-04-23 23:30 | 18.07272 | -63.35283 | 3857 ft | 247 kts | 135° |
| 2026-04-23 23:31 | 18.06044 | -63.34066 | 3736 ft | 238 kts | 135° |
| 2026-04-23 23:31 | 18.04867 | -63.32901 | 3632 ft | 228 kts | 135° |
| 2026-04-23 23:31 | 18.03735 | -63.31780 | 3532 ft | 219 kts | 135° |
| 2026-04-23 23:31 | 18.02651 | -63.30708 | 3427 ft | 211 kts | 135° |
| 2026-04-23 23:32 | 18.01757 | -63.29525 | 3195 ft | 205 kts | 108° |
| 2026-04-23 23:32 | 18.01613 | -63.28080 | 2994 ft | 198 kts | 82° |
| 2026-04-23 23:32 | 18.01816 | -63.26654 | 2775 ft | 197 kts | 79° |
| 2026-04-23 23:32 | 18.02027 | -63.25237 | 2548 ft | 195 kts | 80° |
| 2026-04-23 23:33 | 18.02230 | -63.23851 | 2304 ft | 189 kts | 80° |
| 2026-04-23 23:33 | 18.02422 | -63.22531 | 2058 ft | 176 kts | 81° |
| 2026-04-23 23:33 | 18.02601 | -63.21293 | 1834 ft | 165 kts | 79° |
| 2026-04-23 23:33 | 18.02766 | -63.20149 | 1610 ft | 153 kts | 79° |
| 2026-04-23 23:34 | 18.02918 | -63.19088 | 1443 ft | 138 kts | 79° |
| 2026-04-23 23:34 | 18.03055 | -63.18136 | 1223 ft | 127 kts | 79° |
| 2026-04-23 23:34 | 18.03183 | -63.17233 | 1066 ft | 125 kts | 78° |
| 2026-04-23 23:34 | 18.03311 | -63.16343 | 909 ft | 124 kts | 79° |
| 2026-04-23 23:35 | 18.03440 | -63.15432 | 768 ft | 126 kts | 78° |
| 2026-04-23 23:35 | 18.03573 | -63.14509 | 588 ft | 128 kts | 78° |
| 2026-04-23 23:35 | 18.03707 | -63.13586 | 397 ft | 126 kts | 80° |
| 2026-04-23 23:35 | 18.03836 | -63.12689 | 220 ft | 122 kts | 79° |
| 2026-04-23 23:36 | 18.03964 | -63.11795 | 52 ft | 125 kts | 81° |
| 2026-04-23 23:36 | 18.04086 | -63.10955 | 20 ft | 97 kts | 81° |
| 2026-04-23 23:36 | 18.04155 | -63.10474 | 20 ft | 36 kts | 81° |
| 2026-04-23 23:36 | 18.04181 | -63.10286 | 19 ft | 24 kts | 82° |
| 2026-04-23 23:37 | 18.04204 | -63.10117 | 18 ft | 23 kts | 82° |
| 2026-04-23 23:37 | 18.04225 | -63.09956 | 19 ft | 16 kts | 83° |
| 2026-04-23 23:37 | 18.04259 | -63.09908 | 19 ft | 8 kts | 43° |
| 2026-04-23 23:37 | 18.04257 | -63.09881 | 19 ft | 2 kts | 135° |
| 2026-04-23 23:38 | 18.04238 | -63.09884 | 19 ft | 3 kts | 217° |
| 2026-04-23 23:38 | 18.04228 | -63.09933 | 22 ft | 13 kts | 262° |
| 2026-04-23 23:38 | 18.04209 | -63.10073 | 18 ft | 25 kts | 262° |
| 2026-04-23 23:38 | 18.04183 | -63.10268 | 19 ft | 27 kts | 262° |
| 2026-04-23 23:39 | 18.04155 | -63.10455 | 22 ft | 25 kts | 261° |
| 2026-04-23 23:39 | 18.04131 | -63.10628 | 20 ft | 23 kts | 261° |
| 2026-04-23 23:39 | 18.04119 | -63.10712 | 20 ft | 9 kts | 262° |
| 2026-04-23 23:39 | 18.04110 | -63.10780 | 20 ft | 11 kts | 262° |
| 2026-04-23 23:40 | 18.04096 | -63.10879 | 21 ft | 16 kts | 261° |
| 2026-04-23 23:40 | 18.04100 | -63.10984 | 23 ft | 12 kts | 314° |
| 2026-04-23 23:40 | 18.04164 | -63.11005 | 20 ft | 6 kts | 322° |
| 2026-04-23 23:40 | 18.04167 | -63.11051 | 20 ft | 6 kts | 262° |
| 2026-04-23 23:41 | 18.04161 | -63.11096 | 20 ft | 6 kts | 261° |
| 2026-04-23 23:41 | 18.04153 | -63.11145 | 21 ft | 8 kts | 261° |
| 2026-04-23 23:41 | 18.04143 | -63.11211 | 20 ft | 11 kts | 261° |
| 2026-04-23 23:41 | 18.04136 | -63.11267 | 20 ft | 8 kts | 266° |
| 2026-04-23 23:42 | 18.04168 | -63.11302 | 20 ft | 8 kts | 349° |
| 2026-04-23 23:42 | 18.04223 | -63.11318 | 20 ft | 9 kts | 324° |
| 2026-04-23 23:42 | 18.04236 | -63.11381 | 20 ft | 10 kts | 262° |
| 2026-04-23 23:42 | 18.04226 | -63.11455 | 21 ft | 10 kts | 258° |
| 2026-04-23 23:43 | 18.04226 | -63.11517 | 20 ft | 6 kts | 306° |
| 2026-04-23 23:43 | 18.04258 | -63.11546 | 20 ft | 4 kts | 320° |
| 2026-04-23 23:43 | 18.04264 | -63.11552 | 20 ft | 0 kts | 320° |
| 2026-04-23 23:57 | 18.04265 | -63.11552 | 20 ft | 0 kts | 320° |
| 2026-04-24 00:00 | 18.04261 | -63.11549 | -88 ft | 0 kts | 321° |